Time;durP1;ratioP1;P1;durP2;ratioP2;P2;SDS_P1;SDS_P2;PMS_P1;PMS_P2;Temp;Humidity;BMP_temperature;BMP_pressure;BME280_temperature;BME280_humidity;BME280_pressure;Samples;Min_cycle;Max_cycle;Signal;HPM_P1;HPM_P2
2023/01/17 00:02:27;;;;;;;0.30;0.30;;;;;;;5.45;88.87;97257.97;5052308;22;20504;-52
2023/01/17 00:10:26;;;;;;;0.33;0.23;;;;;;;5.30;90.52;97281.59;5019625;28;20450;-52
2023/01/17 00:13:01;;;;;;;0.53;0.53;;;;;;;5.22;89.60;97281.19;5032836;28;20479;-53
2023/01/17 00:15:29;;;;;;;0.40;0.40;;;;;;;5.17;89.83;97285.00;5032814;28;20862;-52
2023/01/17 00:17:56;;;;;;;0.40;0.40;;;;;;;5.34;88.64;97292.81;5032829;28;20587;-52
2023/01/17 00:26:12;;;;;;;0.20;0.20;;;;;;;4.98;90.17;97296.56;5032577;28;20447;-52
2023/01/17 01:35:47;;;;;;;0.63;0.63;;;;;;;5.15;86.86;97410.59;5035774;28;20454;-52
2023/01/17 01:38:13;;;;;;;0.27;0.20;;;;;;;4.97;87.43;97417.72;5035697;28;20490;-52
2023/01/17 01:41:00;;;;;;;0.30;0.20;;;;;;;5.01;86.49;97416.59;5035612;28;20936;-52
2023/01/17 01:43:44;;;;;;;0.20;0.20;;;;;;;5.09;87.40;97419.69;5028066;28;20872;-52
2023/01/17 01:46:15;;;;;;;6.50;1.03;;;;;;;5.16;87.14;97414.94;5024521;28;20494;-52
2023/01/17 01:48:51;;;;;;;4.10;0.80;;;;;;;5.21;86.33;97418.19;5035785;28;20465;-52
2023/01/17 01:51:26;;;;;;;0.97;0.97;;;;;;;4.94;86.92;97417.88;5035464;28;20470;-53
2023/01/17 01:53:59;;;;;;;0.30;0.20;;;;;;;5.21;86.52;97426.09;5035844;28;20451;-52
2023/01/17 01:56:28;;;;;;;4.23;0.97;;;;;;;5.25;85.95;97425.00;5035721;28;20448;-52
2023/01/17 01:58:57;;;;;;;0.97;0.60;;;;;;;5.16;86.92;97430.75;5035180;28;20493;-52
2023/01/17 02:01:23;;;;;;;0.30;0.20;;;;;;;5.20;85.78;97438.38;5034947;28;20490;-52
2023/01/17 02:03:51;;;;;;;0.30;0.20;;;;;;;5.02;86.83;97429.69;5034887;28;20485;-53
2023/01/17 02:06:28;;;;;;;0.40;0.30;;;;;;;4.87;88.09;97441.00;5034985;28;20448;-52
2023/01/17 02:08:59;;;;;;;0.30;0.30;;;;;;;4.87;88.02;97443.63;5035455;28;20444;-52
2023/01/17 02:11:26;;;;;;;0.60;0.60;;;;;;;4.99;87.69;97435.13;5035461;28;20472;-52
2023/01/17 02:13:53;;;;;;;0.93;0.93;;;;;;;4.89;87.74;97447.03;5017659;28;20459;-52
2023/01/17 02:16:54;;;;;;;0.60;0.60;;;;;;;4.98;87.13;97443.94;5034667;28;20451;-52
2023/01/17 02:19:54;;;;;;;1.00;0.93;;;;;;;5.27;86.19;97444.19;5034128;28;20518;-53
2023/01/17 02:22:42;;;;;;;0.30;0.20;;;;;;;4.95;84.71;97445.88;5035007;28;20980;-52
2023/01/17 02:25:36;;;;;;;0.67;0.57;;;;;;;4.92;85.03;97441.59;5023107;28;20454;-52
2023/01/17 02:28:18;;;;;;;1.40;0.30;;;;;;;4.80;85.53;97444.03;5035738;28;20447;-52
2023/01/17 02:30:59;;;;;;;2.60;2.40;;;;;;;4.71;87.25;97430.44;5035071;28;20542;-52
2023/01/17 02:33:49;;;;;;;0.20;0.20;;;;;;;4.79;86.48;97435.28;5024203;28;20452;-52
2023/01/17 02:36:22;;;;;;;0.40;0.40;;;;;;;4.87;86.94;97437.53;5034948;28;20443;-53
2023/01/17 02:38:58;;;;;;;0.30;0.30;;;;;;;4.64;88.04;97439.53;5034564;28;20488;-52
2023/01/17 02:41:34;;;;;;;1.73;1.63;;;;;;;4.38;88.99;97442.63;5022541;28;20506;-52
2023/01/17 02:44:01;;;;;;;0.40;0.40;;;;;;;4.53;89.33;97451.56;5034613;28;20459;-52
2023/01/17 02:46:28;;;;;;;0.67;0.43;;;;;;;4.44;88.52;97442.34;5034619;28;20448;-52
2023/01/17 02:48:56;;;;;;;0.30;0.20;;;;;;;4.43;89.00;97444.13;5034193;28;20827;-52
2023/01/17 02:51:50;;;;;;;0.43;0.43;;;;;;;4.28;89.56;97450.16;5034148;28;20511;-52
2023/01/17 02:54:51;;;;;;;28.27;1.00;;;;;;;4.41;89.30;97450.38;5022344;28;20443;-52
2023/01/17 02:57:30;;;;;;;0.30;0.20;;;;;;;4.54;88.94;97448.00;5034139;28;20448;-52
2023/01/17 03:00:12;;;;;;;0.30;0.20;;;;;;;4.52;90.06;97457.72;5033889;28;20813;-53
2023/01/17 03:02:55;;;;;;;0.47;0.47;;;;;;;4.31;90.20;97460.50;5034090;28;20479;-53
2023/01/17 03:05:35;;;;;;;0.30;0.20;;;;;;;4.29;90.91;97454.47;5033934;28;20471;-52
2023/01/17 03:08:02;;;;;;;0.30;0.30;;;;;;;4.49;90.93;97456.09;5033943;28;20470;-52
2023/01/17 03:10:32;;;;;;;0.83;0.83;;;;;;;4.43;91.90;97469.56;5033851;28;20452;-52
2023/01/17 03:13:01;;;;;;;0.30;0.20;;;;;;;4.59;90.83;97461.75;5033966;28;20455;-53
2023/01/17 03:15:28;;;;;;;0.30;0.20;;;;;;;4.61;91.80;97468.66;5033956;28;20454;-52
2023/01/17 03:18:00;;;;;;;0.40;0.37;;;;;;;4.56;91.16;97472.44;5033692;28;20538;-52
2023/01/17 03:20:27;;;;;;;0.53;0.53;;;;;;;4.50;91.58;97483.25;5033784;28;20547;-52
2023/01/17 03:22:53;;;;;;;0.30;0.23;;;;;;;4.47;91.42;97484.25;5033419;28;20513;-52
2023/01/17 03:25:20;;;;;;;0.30;0.20;;;;;;;4.29;91.34;97490.44;5033559;28;20945;-52
2023/01/17 03:27:46;;;;;;;14.00;1.03;;;;;;;4.64;90.78;97486.91;5033699;28;20443;-52
2023/01/17 03:30:13;;;;;;;0.30;0.20;;;;;;;4.63;90.93;97484.34;5033384;28;20444;-52
2023/01/17 03:32:39;;;;;;;0.30;0.20;;;;;;;4.66;90.43;97481.56;5033284;28;20467;-53
2023/01/17 03:35:06;;;;;;;0.30;0.20;;;;;;;4.91;90.32;97486.44;5033298;28;20439;-53
2023/01/17 03:37:32;;;;;;;0.67;0.40;;;;;;;4.81;91.13;97491.34;5032927;28;20451;-53
2023/01/17 03:39:59;;;;;;;0.60;0.30;;;;;;;4.61;90.98;97486.19;5033097;28;20448;-53
2023/01/17 03:42:25;;;;;;;1.63;1.53;;;;;;;4.66;90.80;97478.91;5033384;28;20601;-53
2023/01/17 03:44:51;;;;;;;16.23;0.60;;;;;;;4.71;90.18;97477.78;5033407;28;20454;-53
2023/01/17 03:47:18;;;;;;;11.07;1.33;;;;;;;4.57;91.76;97476.78;5033227;28;20776;-52
2023/01/17 03:49:44;;;;;;;0.50;0.50;;;;;;;4.63;92.07;97477.31;5033233;28;20518;-53
2023/01/17 03:52:10;;;;;;;0.33;0.20;;;;;;;4.65;91.98;97477.22;5033000;28;21030;-52
2023/01/17 03:54:37;;;;;;;0.40;0.40;;;;;;;4.68;90.80;97475.31;5033223;28;20452;-53
2023/01/17 03:57:03;;;;;;;0.30;0.20;;;;;;;4.72;90.90;97483.91;5033365;28;20907;-52
2023/01/17 03:59:32;;;;;;;0.30;0.30;;;;;;;4.74;90.17;97476.78;5033548;28;20549;-53
2023/01/17 04:01:59;;;;;;;0.60;0.50;;;;;;;4.94;89.96;97478.41;5033136;28;20479;-53
2023/01/17 04:04:26;;;;;;;0.60;0.50;;;;;;;4.47;91.33;97463.22;5033214;28;20448;-52
2023/01/17 04:06:53;;;;;;;0.60;0.60;;;;;;;4.47;91.85;97463.22;5033221;28;20947;-52
2023/01/17 04:09:19;;;;;;;3.47;0.97;;;;;;;4.42;92.07;97471.34;5033710;28;20439;-52
2023/01/17 04:11:49;;;;;;;0.60;0.20;;;;;;;4.36;92.06;97462.91;5033305;28;20468;-53
2023/01/17 04:14:16;;;;;;;0.30;0.20;;;;;;;4.52;92.41;97471.72;5033626;28;20448;-52
2023/01/17 04:16:43;;;;;;;1.37;1.03;;;;;;;4.39;91.86;97474.13;5033099;28;20451;-52
2023/01/17 04:19:12;;;;;;;0.40;0.40;;;;;;;4.58;90.99;97475.84;5033059;28;20497;-52
2023/01/17 04:21:38;;;;;;;0.70;0.50;;;;;;;4.43;91.52;97469.56;5033019;28;20546;-53
2023/01/17 04:24:05;;;;;;;0.20;0.20;;;;;;;4.52;91.11;97463.84;5033262;28;20451;-53
2023/01/17 04:26:32;;;;;;;0.63;0.63;;;;;;;4.59;91.72;97469.66;5033218;28;20451;-52
2023/01/17 04:28:58;;;;;;;0.63;0.63;;;;;;;4.47;91.91;97460.59;5032980;28;20444;-52
2023/01/17 04:31:24;;;;;;;0.90;0.43;;;;;;;4.36;91.90;97465.53;5032889;28;20867;-52
2023/01/17 04:33:51;;;;;;;0.30;0.20;;;;;;;4.31;91.80;97470.16;5033280;28;20960;-52
2023/01/17 04:36:17;;;;;;;0.93;0.93;;;;;;;4.19;92.44;97471.63;5032917;28;20821;-51
2023/01/17 04:38:44;;;;;;;4.43;0.73;;;;;;;4.55;92.01;97470.75;5033068;28;20487;-52
2023/01/17 04:41:10;;;;;;;0.40;0.40;;;;;;;4.56;91.78;97473.28;5032514;28;20569;-52
2023/01/17 04:43:37;;;;;;;0.43;0.43;;;;;;;4.70;92.05;97468.19;5035655;28;20502;-52
2023/01/17 04:46:08;;;;;;;0.43;0.40;;;;;;;4.42;91.76;97467.88;5036478;28;20452;-52
2023/01/17 04:48:35;;;;;;;4.63;1.23;;;;;;;4.27;93.18;97472.09;5036474;28;20466;-53
2023/01/17 04:51:03;;;;;;;0.33;0.30;;;;;;;4.38;93.67;97476.81;5036746;28;20467;-52
2023/01/17 04:53:30;;;;;;;0.30;0.20;;;;;;;4.37;93.30;97483.00;5036759;28;20447;-52
2023/01/17 04:55:57;;;;;;;0.63;0.37;;;;;;;4.54;93.66;97488.31;5036498;28;20460;-52
2023/01/17 04:58:23;;;;;;;0.20;0.20;;;;;;;4.30;93.96;97490.34;5036335;28;20515;-52
2023/01/17 05:00:50;;;;;;;0.30;0.20;;;;;;;4.35;93.88;97495.38;5036157;28;20468;-51
2023/01/17 05:03:18;;;;;;;0.27;0.20;;;;;;;4.30;94.33;97505.28;5036441;28;20450;-52
2023/01/17 05:05:45;;;;;;;0.40;0.40;;;;;;;4.28;95.20;97502.72;5036463;28;20454;-52
2023/01/17 05:08:11;;;;;;;0.50;0.50;;;;;;;4.21;95.67;97514.44;5036118;28;20455;-52
2023/01/17 05:10:38;;;;;;;0.30;0.20;;;;;;;4.17;95.42;97518.16;5036538;28;20456;-52
2023/01/17 05:13:04;;;;;;;0.67;0.67;;;;;;;4.13;96.53;97503.47;5036080;28;20452;-52
2023/01/17 05:15:31;;;;;;;0.30;0.20;;;;;;;4.14;96.26;97503.38;5035912;28;20447;-52
2023/01/17 05:17:57;;;;;;;0.40;0.30;;;;;;;4.04;96.82;97507.38;5035925;28;20459;-52
2023/01/17 05:20:25;;;;;;;0.73;0.50;;;;;;;4.05;97.78;97506.44;5036119;28;20452;-52
2023/01/17 05:22:54;;;;;;;0.40;0.30;;;;;;;4.08;97.85;97508.06;5035953;28;20451;-52
2023/01/17 05:25:26;;;;;;;0.60;0.30;;;;;;;4.06;97.12;97500.25;5018552;28;20443;-52
2023/01/17 05:27:53;;;;;;;3.90;0.27;;;;;;;4.14;96.77;97506.00;5035678;28;20464;-52
2023/01/17 05:30:20;;;;;;;0.73;0.73;;;;;;;4.38;95.60;97503.97;5036006;28;20447;-52
2023/01/17 05:32:52;;;;;;;0.30;0.30;;;;;;;4.80;99.11;97508.06;5035662;28;20451;-52
2023/01/17 05:35:21;;;;;;;0.30;0.30;;;;;;;4.37;95.83;97504.88;5035552;28;20454;-52
2023/01/17 05:37:49;;;;;;;0.90;0.63;;;;;;;4.30;96.16;97502.66;5035502;28;20509;-52
2023/01/17 05:40:23;;;;;;;0.30;0.30;;;;;;;4.33;95.61;97507.75;5035523;28;20491;-52
2023/01/17 05:42:52;;;;;;;0.30;0.20;;;;;;;4.19;95.95;97504.94;5035787;28;20451;-52
2023/01/17 05:45:21;;;;;;;0.37;0.20;;;;;;;4.07;96.70;97509.00;5035558;28;20546;-52
2023/01/17 05:47:49;;;;;;;0.40;0.30;;;;;;;4.02;96.95;97509.22;5035432;28;20478;-52
2023/01/17 05:50:19;;;;;;;0.50;0.50;;;;;;;3.94;96.59;97510.50;5035297;28;20444;-52
2023/01/17 05:52:50;;;;;;;0.30;0.20;;;;;;;3.98;96.95;97512.06;5035511;28;20463;-52
2023/01/17 05:55:17;;;;;;;0.40;0.23;;;;;;;3.88;96.98;97516.06;5035314;28;20456;-52
2023/01/17 05:57:44;;;;;;;0.60;0.60;;;;;;;3.83;98.18;97513.63;5035545;28;20459;-52
2023/01/17 06:00:11;;;;;;;0.30;0.20;;;;;;;3.76;98.18;97513.06;5035201;28;20487;-52
2023/01/17 06:02:38;;;;;;;0.30;0.30;;;;;;;3.67;98.01;97510.84;5035665;28;20483;-52
2023/01/17 06:05:05;;;;;;;0.20;0.20;;;;;;;3.61;98.80;97515.53;5035268;28;20454;-52
2023/01/17 06:07:32;;;;;;;1.07;0.70;;;;;;;3.57;98.94;97522.72;5035029;28;20911;-53
2023/01/17 06:09:59;;;;;;;0.33;0.30;;;;;;;3.59;99.25;97520.00;5035093;28;20454;-52
2023/01/17 06:12:25;;;;;;;0.20;0.20;;;;;;;3.57;98.78;97522.72;5035012;28;20988;-52
2023/01/17 06:14:51;;;;;;;0.70;0.30;;;;;;;3.55;98.88;97519.28;5034962;28;20447;-52
2023/01/17 06:17:18;;;;;;;0.30;0.20;;;;;;;3.51;98.93;97523.81;5034982;28;20959;-52
2023/01/17 06:19:44;;;;;;;0.80;0.80;;;;;;;3.54;99.78;97538.59;5034899;28;20562;-52
2023/01/17 06:22:11;;;;;;;0.30;0.30;;;;;;;3.48;99.51;97546.75;5034621;28;20472;-52
2023/01/17 06:24:37;;;;;;;0.60;0.60;;;;;;;3.59;98.97;97543.66;5034781;28;20447;-52
2023/01/17 06:27:04;;;;;;;0.30;0.20;;;;;;;3.54;98.96;97554.34;5034664;28;20975;-51
2023/01/17 06:29:30;;;;;;;2.83;0.50;;;;;;;3.49;99.57;97551.06;5034629;28;20466;-52
2023/01/17 06:31:56;;;;;;;0.70;0.70;;;;;;;3.60;99.06;97553.22;5034578;28;20471;-52
2023/01/17 06:34:25;;;;;;;0.87;0.63;;;;;;;3.65;98.34;97538.97;5034801;28;20451;-52
2023/01/17 06:36:52;;;;;;;2.60;0.67;;;;;;;3.70;97.31;97537.00;5034536;28;20447;-52
2023/01/17 06:39:18;;;;;;;0.47;0.40;;;;;;;3.51;97.68;97541.34;5034137;28;20898;-52
2023/01/17 06:41:45;;;;;;;0.27;0.20;;;;;;;3.56;98.10;97542.88;5034259;28;20467;-52
2023/01/17 06:44:11;;;;;;;0.20;0.20;;;;;;;3.58;97.75;97540.16;5034390;28;20460;-52
2023/01/17 06:46:38;;;;;;;0.40;0.30;;;;;;;3.46;99.18;97541.56;5034341;28;20459;-53
2023/01/17 06:49:04;;;;;;;8.03;0.70;;;;;;;3.39;99.07;97545.38;5034043;28;20452;-53
2023/01/17 06:51:31;;;;;;;0.30;0.30;;;;;;;3.29;99.10;97536.22;5034653;28;20468;-52
2023/01/17 06:53:57;;;;;;;0.30;0.20;;;;;;;3.28;100.00;97532.72;5034532;28;20458;-52
2023/01/17 06:56:23;;;;;;;0.50;0.50;;;;;;;3.28;99.52;97537.97;5034190;28;20448;-52
2023/01/17 06:58:50;;;;;;;0.40;0.30;;;;;;;3.26;99.44;97541.56;5033948;28;20494;-52
2023/01/17 07:01:17;;;;;;;0.93;0.93;;;;;;;3.31;99.49;97533.53;5033884;28;20479;-52
2023/01/17 07:03:44;;;;;;;0.30;0.20;;;;;;;3.26;99.73;97534.56;5033816;28;20455;-52
2023/01/17 07:06:10;;;;;;;0.50;0.40;;;;;;;3.35;99.71;97530.69;5033262;28;20459;-52
2023/01/17 07:08:37;;;;;;;1.50;0.93;;;;;;;3.27;99.64;97541.50;5016566;28;20448;-52
2023/01/17 07:11:06;;;;;;;0.30;0.20;;;;;;;3.35;100.00;97532.47;5033810;28;20471;-52
2023/01/17 07:13:35;;;;;;;2.30;0.47;;;;;;;3.32;99.54;97538.69;5033770;28;20455;-52
2023/01/17 07:16:03;;;;;;;0.70;0.40;;;;;;;3.38;99.92;97540.19;5033688;28;20820;-52
2023/01/17 07:18:30;;;;;;;0.30;0.20;;;;;;;3.21;100.00;97535.69;5033537;28;20483;-53
2023/01/17 07:20:56;;;;;;;1.13;1.13;;;;;;;3.22;100.00;97535.63;5034157;28;20476;-52
2023/01/17 07:23:24;;;;;;;1.07;1.07;;;;;;;3.10;100.00;97524.81;5033833;28;20491;-52
2023/01/17 07:25:58;;;;;;;0.30;0.20;;;;;;;3.07;100.00;97525.78;5033881;28;20456;-52
2023/01/17 07:28:26;;;;;;;0.40;0.40;;;;;;;2.94;100.00;97535.09;5033897;28;20452;-52
2023/01/17 07:30:53;;;;;;;0.30;0.30;;;;;;;3.05;100.00;97529.41;5015615;28;20555;-52
2023/01/17 07:33:20;;;;;;;0.77;0.50;;;;;;;2.77;100.00;97534.97;5033629;28;20487;-52
2023/01/17 07:35:46;;;;;;;0.40;0.40;;;;;;;2.55;100.00;97529.75;5033573;28;20447;-52
2023/01/17 07:38:16;;;;;;;1.03;1.03;;;;;;;2.78;100.00;97536.66;5033588;28;20448;-52
2023/01/17 07:40:43;;;;;;;0.73;0.73;;;;;;;2.67;100.00;97519.59;5033494;28;20495;-52
2023/01/17 07:43:12;;;;;;;0.40;0.40;;;;;;;3.04;100.00;97517.19;5033445;28;20459;-52
2023/01/17 07:45:44;;;;;;;0.30;0.30;;;;;;;2.97;100.00;97514.81;5033555;28;20801;-52
2023/01/17 07:48:11;;;;;;;0.43;0.40;;;;;;;3.04;100.00;97518.06;5033302;28;20452;-52
2023/01/17 07:50:38;;;;;;;0.70;0.43;;;;;;;3.09;100.00;97512.59;5033075;28;20448;-52
2023/01/17 07:53:04;;;;;;;0.97;0.50;;;;;;;3.15;100.00;97512.31;5033322;28;20451;-52
2023/01/17 07:55:31;;;;;;;2.20;1.50;;;;;;;3.05;100.00;97505.78;5033107;28;20455;-52
2023/01/17 07:57:58;;;;;;;0.77;0.77;;;;;;;2.95;100.00;97506.19;5015599;28;20456;-52
2023/01/17 08:00:27;;;;;;;0.30;0.23;;;;;;;3.06;100.00;97500.47;5032874;28;20483;-52
2023/01/17 08:02:55;;;;;;;0.93;0.93;;;;;;;3.07;100.00;97512.66;5032872;28;20468;-52
2023/01/17 08:05:22;;;;;;;0.40;0.40;;;;;;;3.15;100.00;97507.94;5033137;28;20451;-52
2023/01/17 08:07:49;;;;;;;0.53;0.53;;;;;;;2.98;100.00;97505.19;5033226;28;20474;-52
2023/01/17 08:10:17;;;;;;;0.43;0.40;;;;;;;3.15;100.00;97496.56;5032786;28;20451;-52
2023/01/17 08:12:48;;;;;;;2.90;1.60;;;;;;;3.21;100.00;97499.78;5032649;28;20476;-52
2023/01/17 08:15:16;;;;;;;0.50;0.43;;;;;;;3.33;100.00;97495.78;5019875;28;20443;-52
2023/01/17 08:17:47;;;;;;;0.53;0.53;;;;;;;3.47;99.42;97487.28;5032219;28;20454;-52
2023/01/17 08:20:14;;;;;;;0.40;0.40;;;;;;;3.63;98.59;97485.66;5032730;28;20858;-52
2023/01/17 08:22:41;;;;;;;0.40;0.33;;;;;;;3.78;97.97;97489.34;5032698;28;20997;-52
2023/01/17 08:25:08;;;;;;;0.97;0.87;;;;;;;3.73;98.09;97483.47;5032722;28;20575;-52
2023/01/17 08:27:34;;;;;;;1.00;1.00;;;;;;;3.70;98.04;97486.22;5032742;28;20462;-52
2023/01/17 08:30:02;;;;;;;0.20;0.20;;;;;;;3.69;97.89;97477.47;5032936;28;20542;-52
2023/01/17 08:32:28;;;;;;;0.63;0.40;;;;;;;3.71;98.44;97480.06;5032618;28;20479;-52
2023/01/17 08:34:56;;;;;;;0.60;0.43;;;;;;;3.75;98.40;97471.97;5032458;28;20440;-52
2023/01/17 08:37:23;;;;;;;0.20;0.20;;;;;;;3.73;98.27;97471.19;5032554;28;20483;-52
2023/01/17 08:39:49;;;;;;;1.80;1.70;;;;;;;3.75;98.24;97476.34;5032717;28;20490;-52
2023/01/17 08:42:16;;;;;;;9.93;2.30;;;;;;;3.79;98.07;97478.75;5032465;28;20930;-52
2023/01/17 08:44:43;;;;;;;1.10;1.10;;;;;;;3.77;97.85;97479.75;5032747;28;20953;-52
2023/01/17 08:47:09;;;;;;;0.30;0.20;;;;;;;3.82;98.21;97480.38;5032436;28;20637;-52
2023/01/17 08:49:36;;;;;;;5.30;0.87;;;;;;;3.84;97.87;97478.56;5032593;28;20447;-52
2023/01/17 08:52:04;;;;;;;1.37;0.80;;;;;;;3.85;97.81;97482.91;5014836;28;20494;-52
2023/01/17 08:54:30;;;;;;;1.17;1.07;;;;;;;3.94;97.33;97477.19;5032915;28;20443;-52
2023/01/17 08:56:56;;;;;;;2.40;2.20;;;;;;;3.90;96.62;97482.66;5032631;28;21071;-52
2023/01/17 08:59:23;;;;;;;50.50;2.03;;;;;;;3.98;95.44;97485.81;5032609;28;20858;-52
2023/01/17 09:01:51;;;;;;;0.80;0.80;;;;;;;4.05;94.53;97487.19;5032558;28;20483;-52
2023/01/17 09:04:18;;;;;;;0.50;0.50;;;;;;;3.96;95.14;97482.38;5014862;28;20454;-52
2023/01/17 09:06:46;;;;;;;1.03;1.00;;;;;;;4.09;94.54;97494.84;5033664;28;20509;-52
2023/01/17 09:09:14;;;;;;;0.50;0.50;;;;;;;4.16;94.66;97503.31;5032330;28;20944;-52
2023/01/17 09:11:40;;;;;;;1.30;1.30;;;;;;;4.16;94.69;97501.53;5032195;28;20468;-52
2023/01/17 09:14:06;;;;;;;1.10;0.60;;;;;;;4.23;94.76;97499.44;5032252;28;20502;-52
2023/01/17 09:16:33;;;;;;;0.60;0.53;;;;;;;4.21;94.51;97493.41;5032425;28;20448;-53
2023/01/17 09:19:00;;;;;;;0.90;0.90;;;;;;;4.29;94.31;97500.94;5032385;28;20905;-52
2023/01/17 09:21:26;;;;;;;1.13;1.13;;;;;;;4.28;94.61;97493.97;5032626;28;20533;-52
2023/01/17 09:23:54;;;;;;;0.63;0.63;;;;;;;4.14;94.01;97507.78;5032142;28;20458;-52
2023/01/17 09:26:24;;;;;;;0.30;0.30;;;;;;;4.23;93.75;97498.59;5031914;28;20829;-51
2023/01/17 09:28:51;;;;;;;3.80;0.80;;;;;;;4.28;94.18;97502.72;5033754;28;20471;-52
2023/01/17 09:31:19;;;;;;;0.40;0.20;;;;;;;4.45;93.13;97507.16;5035559;28;20979;-52
2023/01/17 09:33:47;;;;;;;0.47;0.47;;;;;;;4.34;93.88;97510.31;5035644;28;20831;-52
2023/01/17 09:36:13;;;;;;;2.20;2.10;;;;;;;4.62;93.42;97511.56;5035830;28;20450;-52
2023/01/17 09:38:40;;;;;;;1.90;0.77;;;;;;;4.61;93.11;97507.25;5035942;28;20456;-52
2023/01/17 09:41:27;;;;;;;0.30;0.23;;;;;;;4.30;93.34;97502.66;5035270;28;20498;-52
2023/01/17 09:44:32;;;;;;;6.03;1.50;;;;;;;4.55;93.65;97504.94;5036002;28;20447;-52
2023/01/17 09:47:12;;;;;;;0.40;0.40;;;;;;;4.50;93.73;97510.41;5035887;28;20456;-52
2023/01/17 09:49:44;;;;;;;1.77;0.90;;;;;;;4.59;93.73;97509.97;5035777;28;20538;-52
2023/01/17 09:52:13;;;;;;;2.60;0.90;;;;;;;4.43;94.08;97506.38;5035699;28;21018;-52
2023/01/17 09:54:42;;;;;;;1.43;0.87;;;;;;;4.63;93.26;97510.66;5035390;28;21012;-52
2023/01/17 09:57:35;;;;;;;0.30;0.30;;;;;;;4.75;93.02;97510.91;5035551;28;20476;-52
2023/01/17 10:00:32;;;;;;;0.40;0.33;;;;;;;4.85;93.20;97510.44;5025239;28;21005;-52
2023/01/17 10:03:16;;;;;;;0.70;0.60;;;;;;;4.91;92.33;97510.13;5035073;28;20458;-52
2023/01/17 10:06:04;;;;;;;0.33;0.30;;;;;;;5.09;92.55;97510.97;5035382;28;20509;-53
2023/01/17 10:08:41;;;;;;;1.20;1.13;;;;;;;5.06;92.21;97506.69;5035087;28;20440;-53
2023/01/17 10:11:29;;;;;;;1.70;1.33;;;;;;;5.16;91.11;97514.97;5034792;28;20837;-52
2023/01/17 10:14:04;;;;;;;0.50;0.40;;;;;;;5.02;91.44;97513.91;5023427;28;21026;-52
2023/01/17 10:16:42;;;;;;;16.57;1.20;;;;;;;5.05;91.26;97508.47;5034820;28;20899;-52
2023/01/17 10:19:31;;;;;;;4.93;0.90;;;;;;;5.22;91.47;97502.38;5034953;28;20443;-52
2023/01/17 10:22:06;;;;;;;0.80;0.60;;;;;;;5.02;91.35;97497.28;5023148;28;20468;-52
2023/01/17 10:25:11;;;;;;;0.50;0.40;;;;;;;5.21;91.86;97502.47;5034942;28;21021;-52
2023/01/17 10:27:48;;;;;;;5.80;0.83;;;;;;;5.53;91.33;97498.13;4992603;28;20452;-52
2023/01/17 10:30:32;;;;;;;0.40;0.40;;;;;;;5.45;91.48;97503.78;5034478;28;20531;-52
2023/01/17 10:33:03;;;;;;;0.30;0.30;;;;;;;5.30;92.80;97509.84;5034089;28;20448;-52
2023/01/17 10:35:35;;;;;;;0.40;0.30;;;;;;;5.45;91.67;97503.78;5034245;28;20833;-52
2023/01/17 10:38:09;;;;;;;0.60;0.40;;;;;;;5.55;91.60;97502.38;5026854;28;20494;-53
2023/01/17 10:40:51;;;;;;;0.53;0.53;;;;;;;5.68;90.09;97499.94;5032785;28;20487;-53
2023/01/17 10:43:44;;;;;;;0.30;0.30;;;;;;;5.65;89.79;97500.94;5034001;28;20454;-53
2023/01/17 10:46:18;;;;;;;0.40;0.30;;;;;;;5.63;88.34;97500.19;5021500;28;20451;-53
2023/01/17 10:48:48;;;;;;;0.30;0.20;;;;;;;5.68;87.37;97497.28;5033925;28;20482;-53
2023/01/17 10:51:41;;;;;;;0.80;0.70;;;;;;;5.72;86.07;97500.59;5034108;28;20499;-54
2023/01/17 10:54:45;;;;;;;0.47;0.33;;;;;;;5.56;87.19;97495.31;5033906;28;20960;-53
2023/01/17 10:57:16;;;;;;;0.63;0.63;;;;;;;5.52;86.51;97499.91;5033778;28;20443;-53
2023/01/17 10:59:43;;;;;;;7.50;1.83;;;;;;;5.58;85.31;97496.06;5033885;28;20491;-53
2023/01/17 11:02:35;;;;;;;1.90;1.17;;;;;;;5.19;83.53;97484.06;5033723;28;20480;-52
2023/01/17 11:05:21;;;;;;;0.30;0.20;;;;;;;5.35;84.19;97479.72;5023587;28;20456;-53
2023/01/17 11:08:06;;;;;;;0.27;0.20;;;;;;;5.41;84.93;97478.53;5033523;28;20440;-53
2023/01/17 11:10:35;;;;;;;0.30;0.20;;;;;;;5.47;85.32;97475.56;5021505;28;20470;-53
2023/01/17 11:13:05;;;;;;;0.40;0.40;;;;;;;5.44;84.80;97478.38;5033714;28;20486;-53
2023/01/17 11:15:38;;;;;;;0.50;0.40;;;;;;;5.33;85.47;97475.44;5033942;28;20456;-54
2023/01/17 11:18:13;;;;;;;0.57;0.57;;;;;;;5.38;84.25;97478.72;5034295;28;20452;-53
2023/01/17 11:20:43;;;;;;;1.23;0.60;;;;;;;5.58;85.14;97480.28;5033420;28;20537;-53
2023/01/17 11:23:17;;;;;;;1.33;1.33;;;;;;;5.45;85.80;97466.91;5033684;28;20473;-53
2023/01/17 11:25:51;;;;;;;0.30;0.23;;;;;;;5.52;85.00;97460.38;5033870;28;20451;-53
2023/01/17 11:28:22;;;;;;;0.60;0.50;;;;;;;5.31;85.29;97458.88;5034082;28;20449;-53
2023/01/17 11:30:55;;;;;;;1.73;1.63;;;;;;;5.52;85.36;97456.91;5033608;28;20462;-53
2023/01/17 11:33:46;;;;;;;0.87;0.73;;;;;;;5.29;86.09;97450.22;5034070;28;20448;-53
2023/01/17 11:36:27;;;;;;;0.30;0.20;;;;;;;5.12;87.24;97447.63;5034161;28;20479;-53
2023/01/17 11:39:03;;;;;;;10.67;1.77;;;;;;;5.31;87.11;97437.81;5015919;28;20451;-53
2023/01/17 11:41:40;;;;;;;0.30;0.20;;;;;;;5.68;86.77;97435.84;5033694;28;20912;-53
2023/01/17 11:44:21;;;;;;;0.30;0.20;;;;;;;5.30;85.72;97431.69;5033340;28;20452;-53
2023/01/17 11:47:08;;;;;;;7.20;0.97;;;;;;;5.42;85.21;97422.28;5033600;28;20455;-53
2023/01/17 11:49:35;;;;;;;0.43;0.40;;;;;;;5.63;82.79;97422.94;5022314;28;20447;-53
2023/01/17 11:52:09;;;;;;;0.33;0.23;;;;;;;5.78;81.13;97411.53;5032950;28;20468;-53
2023/01/17 11:54:39;;;;;;;0.30;0.20;;;;;;;5.65;80.90;97421.06;5032978;28;20551;-54
2023/01/17 11:57:16;;;;;;;0.83;0.60;;;;;;;5.50;81.17;97414.00;5033490;28;20456;-53
2023/01/17 11:59:43;;;;;;;0.50;0.40;;;;;;;5.82;82.47;97417.47;5033266;28;20941;-53
2023/01/17 12:02:36;;;;;;;1.03;1.03;;;;;;;5.74;79.21;97415.25;5033254;28;20480;-53
2023/01/17 12:05:27;;;;;;;1.47;1.47;;;;;;;5.83;79.75;97413.91;5033274;28;20937;-53
2023/01/17 12:08:25;;;;;;;1.67;0.20;;;;;;;5.57;77.36;97408.28;5033419;28;20460;-53
2023/01/17 12:11:34;;;;;;;0.30;0.30;;;;;;;5.60;78.37;97404.63;5024354;28;20480;-53
2023/01/17 12:14:26;;;;;;;0.87;0.67;;;;;;;5.51;78.37;97400.72;5023377;28;20538;-53
2023/01/17 12:16:58;;;;;;;0.47;0.40;;;;;;;5.64;81.73;97398.28;5020544;28;20448;-53
2023/01/17 12:19:47;;;;;;;1.20;1.10;;;;;;;6.01;80.91;97396.22;5033119;28;20450;-53
2023/01/17 12:22:33;;;;;;;1.30;0.47;;;;;;;5.86;81.62;97385.56;5017866;28;20472;-53
2023/01/17 12:25:23;;;;;;;0.43;0.40;;;;;;;5.44;80.40;97386.19;5033151;28;20531;-53
2023/01/17 12:27:58;;;;;;;1.67;1.60;;;;;;;5.62;79.89;97372.00;5033330;28;20455;-53
2023/01/17 12:30:54;;;;;;;0.30;0.30;;;;;;;5.54;77.40;97382.13;5033004;28;20991;-53
2023/01/17 12:33:37;;;;;;;0.50;0.30;;;;;;;5.22;78.23;97376.00;5013891;28;20483;-52
2023/01/17 12:36:16;;;;;;;0.30;0.20;;;;;;;5.37;78.93;97371.66;5033024;28;20446;-53
2023/01/17 12:38:46;;;;;;;0.50;0.50;;;;;;;5.30;79.39;97371.13;5032817;28;20466;-52
2023/01/17 12:41:15;;;;;;;14.67;0.83;;;;;;;5.45;78.69;97366.81;5015034;28;20518;-53
2023/01/17 12:43:43;;;;;;;0.30;0.20;;;;;;;5.47;79.19;97364.09;5032943;28;20458;-53
2023/01/17 12:46:48;;;;;;;0.73;0.73;;;;;;;5.61;77.99;97370.28;5032674;28;20458;-53
2023/01/17 12:49:40;;;;;;;0.50;0.33;;;;;;;5.48;77.53;97357.88;5032299;28;20550;-53
2023/01/17 12:52:14;;;;;;;0.30;0.30;;;;;;;5.35;78.67;97355.94;5033534;28;20502;-53
2023/01/17 12:54:45;;;;;;;0.50;0.47;;;;;;;5.38;78.68;97351.44;5032574;28;20444;-53
2023/01/17 12:57:17;;;;;;;0.30;0.20;;;;;;;5.23;78.06;97354.00;5032482;28;20444;-53
2023/01/17 12:59:53;;;;;;;0.40;0.40;;;;;;;5.38;77.69;97351.44;5032363;28;20531;-53
2023/01/17 13:02:34;;;;;;;0.70;0.70;;;;;;;5.27;77.70;97344.97;5019810;28;20479;-53
2023/01/17 13:05:14;;;;;;;0.20;0.20;;;;;;;5.09;77.15;97353.03;5035878;28;20924;-53
2023/01/17 13:07:55;;;;;;;0.30;0.23;;;;;;;5.09;77.18;97347.78;5036556;28;20482;-53
2023/01/17 13:10:27;;;;;;;0.30;0.23;;;;;;;5.04;79.34;97346.22;5036276;28;20443;-53
2023/01/17 13:13:03;;;;;;;0.30;0.20;;;;;;;5.09;79.95;97351.25;5036405;28;20444;-53
2023/01/17 13:15:37;;;;;;;0.23;0.20;;;;;;;5.15;80.91;97336.91;5036111;28;21003;-53
2023/01/17 13:18:16;;;;;;;0.60;0.60;;;;;;;5.27;80.70;97336.22;5035989;28;20530;-53
2023/01/17 13:20:51;;;;;;;0.30;0.20;;;;;;;5.21;80.33;97332.16;5036109;28;20556;-53
2023/01/17 13:23:28;;;;;;;2.67;0.57;;;;;;;5.25;81.04;97333.69;5035929;28;20447;-53
2023/01/17 13:25:58;;;;;;;0.40;0.20;;;;;;;5.09;77.23;97332.81;5035759;28;20462;-53